Time;durP1;ratioP1;P1;durP2;ratioP2;P2;SDS_P1;SDS_P2;PMS_P1;PMS_P2;Temp;Humidity;BMP_temperature;BMP_pressure;BME280_temperature;BME280_humidity;BME280_pressure;Samples;Min_cycle;Max_cycle;Signal;HPM_P1;HPM_P2
2021/07/27 00:00:46;;;;;;;;;2.00;0.00;;;;;21.27;58.77;100954.97;6089660;23;45170;-77
2021/07/27 00:03:11;;;;;;;;;0.00;0.00;;;;;21.30;59.32;100956.63;6090078;23;45315;-77
2021/07/27 00:05:37;;;;;;;;;0.50;0.00;;;;;21.27;59.38;100958.50;6087231;23;45518;-77
2021/07/27 00:08:02;;;;;;;;;0.00;0.00;;;;;21.03;59.22;100925.72;6089310;23;45869;-78
2021/07/27 00:10:28;;;;;;;;;0.00;0.00;;;;;21.08;59.56;100936.19;6089383;23;45244;-78
2021/07/27 00:12:54;;;;;;;;;1.00;1.00;;;;;21.16;59.65;100952.66;6089993;23;45249;-77
2021/07/27 00:15:19;;;;;;;;;1.00;1.00;;;;;21.04;59.68;100945.13;6090575;23;45413;-78
2021/07/27 00:17:45;;;;;;;;;1.00;1.00;;;;;21.18;59.26;100960.56;6089653;23;45501;-78
2021/07/27 00:20:11;;;;;;;;;0.25;0.25;;;;;21.16;59.47;100963.25;6089471;23;45609;-77
2021/07/27 00:22:40;;;;;;;;;0.25;0.00;;;;;21.09;59.38;100946.72;6089773;23;45708;-78
2021/07/27 00:25:09;;;;;;;;;0.00;0.00;;;;;21.10;59.42;100948.44;6089925;23;45424;-77
2021/07/27 00:27:35;;;;;;;;;1.00;1.00;;;;;21.12;59.53;100951.03;6089373;23;45485;-78
2021/07/27 00:30:03;;;;;;;;;0.00;0.00;;;;;21.12;59.16;100948.38;6089267;23;45344;-78
2021/07/27 00:32:29;;;;;;;;;0.50;0.50;;;;;21.06;59.24;100930.94;6089274;23;45387;-77
2021/07/27 00:34:54;;;;;;;;;0.75;0.50;;;;;20.95;59.60;100912.75;6089200;23;45395;-79
2021/07/27 00:37:20;;;;;;;;;0.00;0.00;;;;;20.93;59.04;100906.66;6089093;23;55647;-77
2021/07/27 00:39:46;;;;;;;;;0.00;0.00;;;;;21.08;59.57;100942.34;6088983;23;45312;-78
2021/07/27 00:42:14;;;;;;;;;0.50;0.00;;;;;21.04;59.82;100943.34;6089882;23;45294;-78
2021/07/27 00:44:40;;;;;;;;;1.00;1.00;;;;;20.89;59.26;100912.94;6089950;23;45370;-78
2021/07/27 00:47:06;;;;;;;;;0.00;0.00;;;;;21.03;59.85;100938.97;6089261;23;46026;-78
2021/07/27 00:49:31;;;;;;;;;2.00;0.00;;;;;21.00;59.66;100941.72;6088938;23;45399;-78
2021/07/27 00:51:56;;;;;;;;;0.00;0.00;;;;;20.98;59.88;100941.75;6089191;23;45416;-78
2021/07/27 00:54:22;;;;;;;;;0.00;0.00;;;;;20.95;60.05;100922.47;6090066;23;45332;-77
2021/07/27 00:56:47;;;;;;;;;0.25;0.25;;;;;20.93;59.92;100919.88;6089105;23;45959;-79
2021/07/27 00:59:12;;;;;;;;;0.00;0.00;;;;;20.93;59.58;100926.94;6088717;23;57384;-78
2021/07/27 01:01:38;;;;;;;;;0.25;0.25;;;;;20.92;60.01;100944.59;6089669;23;45614;-78
2021/07/27 01:04:03;;;;;;;;;0.00;0.00;;;;;20.86;59.80;100936.84;6088933;23;45277;-79
2021/07/27 01:06:29;;;;;;;;;0.00;0.00;;;;;20.80;60.15;100940.53;6089456;23;46713;-78
2021/07/27 01:08:54;;;;;;;;;0.00;0.00;;;;;20.79;60.73;100944.09;6088289;23;45411;-78
2021/07/27 01:11:24;;;;;;;;;1.00;0.00;;;;;20.42;60.33;100895.84;6089096;23;45355;-77
2021/07/27 01:13:49;;;;;;;;;0.00;0.00;;;;;20.74;60.80;100940.72;6089183;23;45308;-77
2021/07/27 01:16:15;;;;;;;;;0.00;0.00;;;;;20.72;60.60;100951.34;6089128;23;45979;-79
2021/07/27 01:18:51;;;;;;;;;0.00;0.00;;;;;20.69;60.69;100937.34;6088531;23;45304;-77
2021/07/27 01:40:08;;;;;;;;;1.50;1.00;;;;;20.74;60.75;100924.84;6088835;23;45380;-77
2021/07/27 01:42:39;;;;;;;;;0.00;0.00;;;;;20.62;60.59;100911.09;6088987;23;45457;-78
2021/07/27 01:45:10;;;;;;;;;1.00;0.75;;;;;20.73;60.77;100918.69;6089137;23;45621;-78
2021/07/27 01:47:35;;;;;;;;;0.00;0.00;;;;;20.75;60.63;100922.16;6088383;23;46046;-78
2021/07/27 01:50:01;;;;;;;;;0.00;0.00;;;;;20.73;60.64;100929.28;6088509;23;45311;-78
2021/07/27 01:52:26;;;;;;;;;0.00;0.00;;;;;20.66;60.50;100911.88;6089195;23;45273;-79
2021/07/27 01:54:56;;;;;;;;;0.50;0.00;;;;;20.73;61.06;100923.09;6089697;23;45274;-77
2021/07/27 01:57:23;;;;;;;;;0.50;0.00;;;;;20.71;61.27;100917.91;6089420;23;45332;-77
2021/07/27 01:59:58;;;;;;;;;0.00;0.00;;;;;20.68;60.98;100914.47;6088440;23;45233;-78
2021/07/27 02:02:23;;;;;;;;;0.00;0.00;;;;;20.67;61.15;100908.28;6089056;23;45287;-77
2021/07/27 02:04:49;;;;;;;;;0.00;0.00;;;;;20.68;61.09;100914.47;6088935;23;45305;-76
2021/07/27 02:07:14;;;;;;;;;1.00;1.00;;;;;20.61;61.18;100905.88;6088272;23;62844;-77
2021/07/27 02:09:42;;;;;;;;;0.00;0.00;;;;;20.56;61.29;100908.66;6088506;23;45535;-79
2021/07/27 02:12:16;;;;;;;;;0.00;0.00;;;;;20.54;61.29;100910.47;6087290;23;45304;-78
2021/07/27 02:17:28;;;;;;;;;0.00;0.00;;;;;20.64;61.45;100905.75;6088337;23;45364;-77
2021/07/27 02:19:53;;;;;;;;;0.00;0.00;;;;;20.58;61.48;100901.50;6087827;23;57169;-77
2021/07/27 02:22:19;;;;;;;;;1.00;1.00;;;;;20.48;61.24;100889.50;6088142;23;61103;-77
2021/07/27 02:24:45;;;;;;;;;0.75;0.00;;;;;20.63;61.87;100906.66;6088492;23;45344;-77
2021/07/27 02:27:11;;;;;;;;;0.00;0.00;;;;;20.63;61.45;100910.19;6088490;23;59948;-77
2021/07/27 02:29:36;;;;;;;;;0.00;0.00;;;;;20.42;61.55;100866.75;6088051;23;45419;-79
2021/07/27 02:32:03;;;;;;;;;0.00;0.00;;;;;20.49;61.69;100883.31;6086755;23;45308;-78
2021/07/27 02:34:31;;;;;;;;;0.00;0.00;;;;;20.57;61.70;100913.03;6089359;23;45380;-77
2021/07/27 02:36:57;;;;;;;;;0.00;0.00;;;;;20.54;61.41;100910.47;6088496;23;45390;-77
2021/07/27 02:39:22;;;;;;;;;0.50;0.00;;;;;20.52;61.50;100909.63;6088501;23;45349;-77
2021/07/27 02:41:47;;;;;;;;;1.00;1.00;;;;;20.38;61.84;100886.28;6087991;23;53635;-78
2021/07/27 02:44:13;;;;;;;;;0.00;0.00;;;;;20.50;61.94;100896.50;6088381;23;45359;-77
2021/07/27 02:46:38;;;;;;;;;0.00;0.00;;;;;20.56;61.65;100895.44;6087908;23;56214;-77
2021/07/27 02:49:03;;;;;;;;;0.00;0.00;;;;;20.41;61.72;100869.44;6086006;23;61386;-78
2021/07/27 02:51:29;;;;;;;;;0.00;0.00;;;;;20.51;61.98;100895.56;6089090;23;45424;-78
2021/07/27 02:53:54;;;;;;;;;0.00;0.00;;;;;20.45;61.67;100893.09;6088444;23;45250;-78
2021/07/27 02:56:20;;;;;;;;;0.00;0.00;;;;;20.42;62.15;100893.19;6088779;23;45293;-77
2021/07/27 02:58:45;;;;;;;;;0.50;0.50;;;;;20.43;62.33;100894.06;6087801;23;45233;-77
2021/07/27 03:01:11;;;;;;;;;0.00;0.00;;;;;20.19;62.38;100863.06;6088956;23;45377;-77
2021/07/27 03:03:36;;;;;;;;;0.00;0.00;;;;;20.33;62.03;100886.41;6088876;23;45462;-78
2021/07/27 03:06:02;;;;;;;;;0.00;0.00;;;;;20.33;62.01;100888.16;6088357;23;45239;-77
2021/07/27 03:11:15;;;;;;;;;0.00;0.00;;;;;20.27;62.29;100870.72;6088230;23;45229;-78
2021/07/27 03:13:41;;;;;;;;;0.50;0.50;;;;;20.31;62.38;100869.75;6088320;23;45398;-77
2021/07/27 03:16:06;;;;;;;;;2.75;0.50;;;;;20.25;62.39;100859.34;6089104;23;46270;-78
2021/07/27 03:18:32;;;;;;;;;0.00;0.00;;;;;20.33;62.31;100878.47;6090243;23;45398;-77
2021/07/27 03:20:57;;;;;;;;;0.00;0.00;;;;;20.33;62.44;100882.88;6090691;23;45295;-77
2021/07/27 03:23:29;;;;;;;;;0.25;0.25;;;;;20.34;62.55;100882.84;6090905;23;45302;-77
2021/07/27 03:25:54;;;;;;;;;0.50;0.50;;;;;20.25;62.49;100854.06;6090180;23;45360;-77
2021/07/27 03:28:19;;;;;;;;;1.25;0.00;;;;;20.33;62.23;100862.63;6090130;23;45277;-76
2021/07/27 03:30:45;;;;;;;;;0.00;0.00;;;;;20.40;62.33;100865.06;6090356;23;45772;-78
2021/07/27 03:33:16;;;;;;;;;0.50;0.50;;;;;20.46;61.87;100865.75;6090898;23;45305;-78
2021/07/27 03:35:42;;;;;;;;;0.00;0.00;;;;;20.45;62.04;100861.38;6089505;23;45474;-79
2021/07/27 03:38:08;;;;;;;;;0.00;0.00;;;;;20.42;62.11;100860.63;6089347;23;45321;-77
2021/07/27 03:40:34;;;;;;;;;0.25;0.00;;;;;20.37;62.12;100853.69;6089865;23;45216;-78
2021/07/27 03:43:00;;;;;;;;;0.00;0.00;;;;;20.34;62.56;100845.84;6089879;23;45348;-77
2021/07/27 03:45:25;;;;;;;;;0.00;0.00;;;;;20.36;62.37;100840.50;6090021;23;46254;-76
2021/07/27 03:47:50;;;;;;;;;4.00;0.00;;;;;20.12;62.06;100801.56;6089471;23;45435;-77
2021/07/27 03:50:16;;;;;;;;;1.75;0.00;;;;;20.46;62.12;100849.03;6090052;23;45285;-77
2021/07/27 03:52:41;;;;;;;;;0.00;0.00;;;;;20.47;62.22;100849.00;6090065;23;45491;-77
2021/07/27 03:55:07;;;;;;;;;0.00;0.00;;;;;20.50;62.23;100853.31;6089709;23;45897;-76
2021/07/27 03:57:32;;;;;;;;;0.00;0.00;;;;;20.51;62.22;100850.63;6089453;23;45342;-79
2021/07/27 03:59:57;;;;;;;;;0.00;0.00;;;;;20.55;61.74;100838.16;6089589;23;48173;-78
2021/07/27 04:02:26;;;;;;;;;0.00;0.00;;;;;20.48;62.29;100824.28;6089959;23;45340;-77
2021/07/27 04:04:51;;;;;;;;;0.75;0.00;;;;;20.63;61.70;100849.38;6089639;23;46360;-76
2021/07/27 04:07:17;;;;;;;;;0.00;0.00;;;;;20.62;61.96;100844.97;6088789;23;45336;-77
2021/07/27 04:09:43;;;;;;;;;0.50;0.50;;;;;20.64;61.70;100852.84;6089320;23;45402;-77
2021/07/27 04:12:08;;;;;;;;;0.00;0.00;;;;;20.62;61.85;100850.25;6089703;23;45299;-78
2021/07/27 04:14:34;;;;;;;;;0.00;0.00;;;;;20.55;61.98;100824.94;6089348;23;45902;-77
2021/07/27 04:16:59;;;;;;;;;0.00;0.00;;;;;20.64;61.94;100851.09;6088937;23;45412;-77
2021/07/27 04:19:25;;;;;;;;;0.00;0.00;;;;;20.62;62.20;100842.31;6089420;23;45320;-77
2021/07/27 04:21:50;;;;;;;;;2.00;2.00;;;;;20.62;62.11;100846.78;6089240;23;45346;-77
2021/07/27 04:24:17;;;;;;;;;1.25;0.00;;;;;20.45;61.90;100820.84;6087249;23;46179;-76
2021/07/27 04:26:42;;;;;;;;;0.25;0.00;;;;;20.61;61.92;100845.03;6088795;22;45340;-77
2021/07/27 04:29:07;;;;;;;;;0.00;0.00;;;;;20.62;62.23;100852.06;6089372;23;45340;-77
2021/07/27 04:31:33;;;;;;;;;3.00;1.00;;;;;20.64;61.78;100863.44;6089875;23;45287;-77
2021/07/27 04:33:58;;;;;;;;;1.50;0.00;;;;;20.53;62.00;100849.69;6089013;23;45264;-77
2021/07/27 04:36:23;;;;;;;;;0.00;0.00;;;;;20.34;62.25;100842.34;6089010;23;45285;-78
2021/07/27 04:38:49;;;;;;;;;0.00;0.00;;;;;20.41;62.16;100858.88;6088904;23;45428;-77
2021/07/27 04:41:14;;;;;;;;;0.00;0.00;;;;;20.42;62.25;100874.69;6089014;23;45253;-77
2021/07/27 04:43:39;;;;;;;;;1.00;0.00;;;;;20.42;62.52;100866.75;6089220;23;45501;-76
2021/07/27 04:46:07;;;;;;;;;0.00;0.00;;;;;20.41;62.31;100857.09;6089315;23;45225;-76
2021/07/27 04:48:32;;;;;;;;;0.50;0.50;;;;;20.28;62.51;100810.81;6089475;23;45249;-77
2021/07/27 04:50:58;;;;;;;;;0.75;0.75;;;;;20.44;62.22;100825.28;6089220;23;45261;-78
2021/07/27 04:53:25;;;;;;;;;0.00;0.00;;;;;20.61;62.30;100835.31;6088674;23;45674;-77
2021/07/27 04:55:51;;;;;;;;;0.75;0.75;;;;;20.63;62.11;100832.63;6088210;23;45466;-76
2021/07/27 04:58:17;;;;;;;;;0.00;0.00;;;;;20.63;61.81;100836.13;6089419;23;45404;-77
2021/07/27 05:00:42;;;;;;;;;0.00;0.00;;;;;20.52;62.12;100832.94;6088761;23;45324;-78
2021/07/27 05:03:07;;;;;;;;;0.00;0.00;;;;;20.31;62.02;100808.94;6089088;23;45801;-77
2021/07/27 05:05:33;;;;;;;;;0.00;0.00;;;;;20.47;62.36;100861.31;6088951;23;45280;-77
2021/07/27 05:07:59;;;;;;;;;0.00;0.00;;;;;19.85;62.13;100761.81;6088781;23;45555;-77
2021/07/27 05:10:25;;;;;;;;;1.00;1.00;;;;;20.30;62.01;100835.44;6088677;23;45394;-77
2021/07/27 05:12:51;;;;;;;;;0.00;0.00;;;;;20.31;62.00;100824.81;6088625;23;46643;-77
2021/07/27 05:15:16;;;;;;;;;0.75;0.00;;;;;20.38;62.25;100836.91;6088112;23;49220;-77
2021/07/27 05:17:42;;;;;;;;;1.25;1.25;;;;;20.38;62.43;100834.28;6088613;23;45582;-77
2021/07/27 05:20:08;;;;;;;;;1.25;1.25;;;;;20.33;62.26;100832.66;6089326;23;45408;-77
2021/07/27 05:22:35;;;;;;;;;0.00;0.00;;;;;20.35;61.99;100844.06;6088052;23;45945;-77
2021/07/27 05:25:00;;;;;;;;;0.00;0.00;;;;;20.21;62.42;100847.16;6088312;23;45344;-77
2021/07/27 05:27:26;;;;;;;;;2.50;0.00;;;;;20.27;62.62;100859.31;6089069;23;45321;-77
2021/07/27 05:29:54;;;;;;;;;0.00;0.00;;;;;20.17;62.41;100854.28;6087243;23;45382;-79
2021/07/27 05:32:20;;;;;;;;;0.25;0.25;;;;;20.15;62.54;100852.63;6087225;23;45383;-78
2021/07/27 05:34:45;;;;;;;;;0.25;0.25;;;;;20.10;62.56;100863.31;6087020;23;45662;-77
2021/07/27 05:37:10;;;;;;;;;0.00;0.00;;;;;20.07;62.81;100860.75;6086621;22;45277;-77
2021/07/27 05:39:36;;;;;;;;;0.00;0.00;;;;;19.93;63.01;100846.13;6087745;23;45419;-77
2021/07/27 05:42:01;;;;;;;;;0.25;0.00;;;;;19.93;62.34;100854.06;6086595;23;54260;-77
2021/07/27 05:44:27;;;;;;;;;0.25;0.25;;;;;19.92;62.75;100860.25;6087136;23;45350;-77
2021/07/27 05:46:53;;;;;;;;;0.00;0.00;;;;;19.95;62.25;100883.97;6088233;23;45301;-77
2021/07/27 05:49:19;;;;;;;;;0.00;0.00;;;;;19.86;62.61;100885.09;6088294;23;45309;-77
2021/07/27 05:51:45;;;;;;;;;0.00;0.00;;;;;19.77;62.85;100869.47;6087225;23;46523;-77
2021/07/27 05:54:11;;;;;;;;;3.00;0.00;;;;;19.86;62.91;100885.09;6087359;23;45409;-77
2021/07/27 05:56:36;;;;;;;;;0.25;0.25;;;;;19.73;62.81;100866.03;6087901;23;45457;-77
2021/07/27 05:59:01;;;;;;;;;0.00;0.00;;;;;19.70;63.04;100879.38;6087052;23;45411;-78
2021/07/27 06:01:27;;;;;;;;;2.00;1.00;;;;;19.77;63.17;100895.00;6088405;23;45900;-78
2021/07/27 06:03:52;;;;;;;;;0.00;0.00;;;;;19.73;63.29;100908.31;6087946;23;45426;-77
2021/07/27 06:06:17;;;;;;;;;0.00;0.00;;;;;19.59;62.94;100871.72;6087656;23;57556;-78
2021/07/27 06:08:42;;;;;;;;;0.00;0.00;;;;;19.75;63.28;100895.06;6086174;23;45424;-77
2021/07/27 06:11:08;;;;;;;;;0.00;0.00;;;;;19.76;63.63;100894.16;6087272;23;67721;-78
2021/07/27 06:13:33;;;;;;;;;0.00;0.00;;;;;19.62;63.29;100871.66;6087305;23;59064;-77
2021/07/27 06:16:05;;;;;;;;;1.00;0.00;;;;;19.76;63.45;100902.09;6087797;23;45289;-77
2021/07/27 06:18:34;;;;;;;;;1.00;0.00;;;;;19.86;63.40;100921.19;6088436;23;45389;-77
2021/07/27 06:21:00;;;;;;;;;0.00;0.00;;;;;19.78;63.20;100920.53;6087436;23;45445;-77
2021/07/27 06:23:26;;;;;;;;;0.25;0.00;;;;;19.71;63.49;100912.78;6086924;23;45255;-77
2021/07/27 06:25:51;;;;;;;;;0.00;0.00;;;;;19.62;63.54;100900.69;6087072;23;45230;-76
2021/07/27 06:28:17;;;;;;;;;1.50;0.00;;;;;19.64;63.65;100898.00;6088180;23;45222;-76
2021/07/27 06:30:42;;;;;;;;;1.75;0.50;;;;;19.66;63.89;100904.09;6086751;23;51875;-74
2021/07/27 06:33:08;;;;;;;;;0.25;0.25;;;;;19.63;63.83;100902.41;6087758;23;45363;-78
2021/07/27 06:35:33;;;;;;;;;0.00;0.00;;;;;19.58;63.77;100898.16;6087352;23;45321;-78
2021/07/27 06:37:58;;;;;;;;;0.00;0.00;;;;;19.61;63.82;100895.44;6088102;23;45305;-77
2021/07/27 06:40:24;;;;;;;;;0.00;0.00;;;;;19.55;63.81;100879.75;6087120;23;47264;-76
2021/07/27 06:42:49;;;;;;;;;0.00;0.00;;;;;19.65;63.79;100899.72;6087762;23;45229;-77
2021/07/27 06:45:15;;;;;;;;;0.00;0.00;;;;;19.56;63.42;100892.06;6088187;23;45411;-77
2021/07/27 06:47:40;;;;;;;;;1.00;1.00;;;;;19.53;63.55;100884.22;6084815;23;45472;-77
2021/07/27 06:50:06;;;;;;;;;0.25;0.25;;;;;19.72;63.59;100922.41;6086124;23;45364;-77
2021/07/27 06:52:31;;;;;;;;;0.50;0.50;;;;;19.76;63.31;100933.78;6089661;23;45376;-77
2021/07/27 06:54:57;;;;;;;;;1.00;0.00;;;;;19.81;63.38;100928.38;6089726;23;45269;-76
2021/07/27 06:57:22;;;;;;;;;0.00;0.00;;;;;19.72;63.24;100903.94;6088441;23;45387;-77
2021/07/27 06:59:47;;;;;;;;;0.00;0.00;;;;;19.62;62.94;100899.81;6086904;23;57367;-77
2021/07/27 07:02:13;;;;;;;;;0.00;0.00;;;;;19.72;63.22;100933.00;6087687;23;45306;-76
2021/07/27 07:04:38;;;;;;;;;0.00;0.00;;;;;19.79;63.28;100931.06;6088670;23;45341;-77
2021/07/27 07:07:06;;;;;;;;;0.00;0.00;;;;;19.75;63.15;100930.28;6089255;23;45305;-76
2021/07/27 07:09:32;;;;;;;;;0.75;0.75;;;;;19.78;63.21;100933.75;6089103;23;45373;-76
2021/07/27 07:11:57;;;;;;;;;3.50;1.50;;;;;19.63;63.09;100904.19;6087830;23;55166;-77
2021/07/27 07:14:22;;;;;;;;;1.00;0.75;;;;;19.83;63.37;100927.44;6088756;23;54247;-76
2021/07/27 07:16:49;;;;;;;;;1.00;1.00;;;;;19.89;62.99;100931.66;6089670;23;45787;-76
2021/07/27 07:19:18;;;;;;;;;0.00;0.00;;;;;19.88;62.69;100924.66;6088362;23;46449;-77
2021/07/27 07:21:44;;;;;;;;;0.00;0.00;;;;;19.94;62.14;100936.84;6087998;23;45304;-76
2021/07/27 07:24:09;;;;;;;;;0.00;0.00;;;;;19.86;62.37;100934.41;6088360;23;50675;-77
2021/07/27 07:26:34;;;;;;;;;2.00;0.00;;;;;19.90;62.24;100930.75;6088818;23;45349;-75
2021/07/27 07:28:59;;;;;;;;;0.25;0.25;;;;;19.98;61.92;100933.19;6088072;23;46051;-77
2021/07/27 07:31:25;;;;;;;;;0.50;0.00;;;;;19.97;61.67;100921.75;6088689;23;45495;-75
2021/07/27 07:33:51;;;;;;;;;0.00;0.00;;;;;20.11;61.50;100933.75;6088146;23;45383;-75
2021/07/27 07:36:16;;;;;;;;;1.00;0.00;;;;;20.17;61.00;100943.25;6087801;23;45376;-74
2021/07/27 07:38:42;;;;;;;;;0.00;0.00;;;;;19.98;60.86;100917.34;6088946;23;45242;-75
2021/07/27 07:41:12;;;;;;;;;0.00;0.00;;;;;20.10;61.21;100942.59;6088222;23;45322;-76
2021/07/27 07:43:38;;;;;;;;;0.00;0.00;;;;;20.09;61.47;100930.28;6081136;23;45396;-75
2021/07/27 07:46:04;;;;;;;;;0.00;0.00;;;;;20.08;61.16;100910.03;6086742;23;45586;-75
2021/07/27 07:48:29;;;;;;;;;1.00;0.00;;;;;20.20;61.40;100929.97;6086604;23;45902;-75
2021/07/27 07:50:55;;;;;;;;;0.00;0.00;;;;;20.17;61.29;100936.22;6087881;23;45774;-75
2021/07/27 07:53:20;;;;;;;;;1.00;0.00;;;;;20.23;61.16;100930.75;6088092;23;45384;-77
2021/07/27 07:55:45;;;;;;;;;0.00;0.00;;;;;20.30;60.98;100933.22;6088760;23;45382;-78
2021/07/27 07:58:10;;;;;;;;;0.00;0.00;;;;;20.26;60.14;100932.44;6087423;23;45442;-78
2021/07/27 08:00:36;;;;;;;;;0.00;0.00;;;;;19.96;60.68;100904.16;6088231;23;45409;-77
2021/07/27 08:03:02;;;;;;;;;0.00;0.00;;;;;20.22;60.49;100941.38;6085122;23;45674;-79
2021/07/27 08:05:28;;;;;;;;;0.25;0.25;;;;;20.15;60.84;100927.44;6086671;23;45452;-79
2021/07/27 08:07:53;;;;;;;;;1.00;1.00;;;;;20.34;60.26;100948.94;6088256;23;46403;-76
2021/07/27 08:10:19;;;;;;;;;0.00;0.00;;;;;20.33;60.25;100947.22;6087389;23;45394;-76
2021/07/27 08:12:46;;;;;;;;;0.00;0.00;;;;;20.22;60.54;100933.44;6087220;23;45293;-77
2021/07/27 08:15:12;;;;;;;;;0.00;0.00;;;;;20.20;60.23;100928.19;6088697;23;45312;-79
2021/07/27 08:17:38;;;;;;;;;0.00;0.00;;;;;20.20;60.51;100948.47;6088562;23;45450;-80
2021/07/27 08:20:05;;;;;;;;;0.75;0.00;;;;;20.25;60.01;100951.84;6088080;23;45308;-81
2021/07/27 08:22:30;;;;;;;;;1.75;0.50;;;;;20.15;60.21;100953.88;6088401;23;45421;-81
2021/07/27 08:24:55;;;;;;;;;0.00;0.00;;;;;20.07;60.98;100946.19;6088793;23;45438;-78
2021/07/27 08:27:21;;;;;;;;;0.00;0.00;;;;;20.01;60.38;100935.78;6088252;23;46282;-79
2021/07/27 08:29:46;;;;;;;;;0.00;0.00;;;;;19.86;60.16;100910.63;6088251;23;45308;-80
2021/07/27 08:32:11;;;;;;;;;2.00;0.75;;;;;20.12;60.36;100953.97;6087576;23;51405;-78
2021/07/27 08:34:38;;;;;;;;;0.00;0.00;;;;;20.07;60.42;100950.59;6089101;23;45297;-80
2021/07/27 08:37:06;;;;;;;;;3.00;3.00;;;;;19.95;60.68;100939.44;6088397;23;45329;-78
2021/07/27 08:39:32;;;;;;;;;0.75;0.75;;;;;19.95;60.96;100946.47;6088495;23;45473;-81
2021/07/27 08:42:02;;;;;;;;;0.00;0.00;;;;;19.98;61.17;100947.28;6088143;23;45348;-80
2021/07/27 08:44:30;;;;;;;;;0.50;0.50;;;;;20.02;61.41;100940.16;6088280;23;45287;-79
2021/07/27 08:46:58;;;;;;;;;1.50;0.00;;;;;20.02;61.86;100937.50;6087606;23;46095;-79
2021/07/27 08:49:23;;;;;;;;;0.00;0.00;;;;;19.92;61.12;100910.47;6087558;23;45305;-80
2021/07/27 08:51:49;;;;;;;;;0.50;0.00;;;;;19.79;61.55;100901.13;6087924;23;45288;-79
2021/07/27 08:54:15;;;;;;;;;1.00;0.00;;;;;19.91;61.66;100929.88;6088577;23;45288;-80
2021/07/27 08:56:48;;;;;;;;;0.00;0.00;;;;;19.93;61.78;100935.97;6086677;23;45360;-79
2021/07/27 09:02:35;;;;;;;;;0.75;0.75;;;;;19.83;62.07;100918.63;6087866;23;45267;-81
2021/07/27 09:05:11;;;;;;;;;0.00;0.00;;;;;19.90;62.10;100921.97;6088183;23;45301;-79
2021/07/27 09:07:37;;;;;;;;;1.25;0.50;;;;;20.03;62.23;100941.88;6087569;23;46172;-79
2021/07/27 09:10:22;;;;;;;;;0.00;0.00;;;;;20.11;62.16;100939.91;6087765;23;45489;-82
2021/07/27 09:13:06;;;;;;;;;1.50;1.50;;;;;20.20;62.21;100940.53;6088078;23;45683;-80
2021/07/27 09:15:42;;;;;;;;;0.00;0.00;;;;;20.23;62.48;100954.53;6087208;23;45341;-81
2021/07/27 09:18:15;;;;;;;;;0.25;0.25;;;;;20.27;61.82;100946.53;6086825;23;46308;-82
2021/07/27 09:20:43;;;;;;;;;0.75;0.50;;;;;20.24;62.03;100950.97;6087098;23;45385;-80
2021/07/27 09:23:17;;;;;;;;;0.00;0.00;;;;;20.35;61.91;100950.69;6088519;23;45344;-80
2021/07/27 09:25:45;;;;;;;;;0.00;0.00;;;;;20.20;61.71;100946.69;6087951;23;45580;-80
2021/07/27 09:28:11;;;;;;;;;0.00;0.00;;;;;20.12;61.89;100949.56;6088171;23;45873;-81
2021/07/27 09:30:39;;;;;;;;;1.25;0.00;;;;;20.10;61.78;100961.97;6087010;23;45369;-81
2021/07/27 09:33:06;;;;;;;;;0.00;0.00;;;;;19.81;61.80;100908.09;6087666;23;45293;-80
2021/07/27 09:35:32;;;;;;;;;2.00;0.50;;;;;20.15;62.37;100953.88;6087637;23;45446;-80
2021/07/27 09:38:06;;;;;;;;;1.25;1.00;;;;;20.23;62.81;100946.63;6086737;23;46452;-80
2021/07/27 09:40:33;;;;;;;;;0.50;0.50;;;;;20.44;62.72;100954.84;6087714;23;45335;-80
2021/07/27 09:43:00;;;;;;;;;0.00;0.00;;;;;20.60;62.32;100949.06;6088372;23;45409;-79
2021/07/27 09:45:26;;;;;;;;;0.00;0.00;;;;;20.64;62.03;100953.34;6087527;23;45353;-80
2021/07/27 09:47:54;;;;;;;;;0.00;0.00;;;;;20.72;61.71;100945.19;6086029;23;46423;-79
2021/07/27 09:50:22;;;;;;;;;1.00;1.00;;;;;20.68;62.26;100935.63;6087281;23;45210;-80
2021/07/27 09:52:47;;;;;;;;;0.00;0.00;;;;;20.75;62.01;100953.91;6086802;23;45375;-79
2021/07/27 09:55:13;;;;;;;;;0.25;0.25;;;;;20.63;62.02;100949.84;6088229;23;45281;-79
2021/07/27 09:57:38;;;;;;;;;0.00;0.00;;;;;20.49;61.94;100952.91;6088010;23;46394;-79
2021/07/27 10:00:05;;;;;;;;;2.00;0.00;;;;;20.49;62.75;100960.00;6087194;23;45298;-79
2021/07/27 10:02:33;;;;;;;;;0.00;0.00;;;;;20.45;62.39;100959.19;6086916;23;45355;-79
2021/07/27 10:04:59;;;;;;;;;0.00;0.00;;;;;20.37;62.63;100970.00;6087920;23;45312;-79
2021/07/27 10:07:29;;;;;;;;;0.00;0.00;;;;;20.27;62.55;100981.72;6086814;23;45229;-79
2021/07/27 10:10:05;;;;;;;;;0.00;0.00;;;;;20.20;62.84;100973.13;6084693;23;45784;-79
2021/07/27 10:12:34;;;;;;;;;0.25;0.25;;;;;20.19;63.57;100965.25;6086810;23;45298;-78
2021/07/27 10:15:12;;;;;;;;;0.00;0.00;;;;;20.24;63.38;100958.03;6086654;23;45191;-77
2021/07/27 10:17:54;;;;;;;;;0.00;0.00;;;;;20.30;63.40;100962.31;6087395;23;45285;-78
2021/07/27 10:20:27;;;;;;;;;1.00;0.00;;;;;20.43;63.20;100981.31;6087266;23;45300;-78
2021/07/27 10:22:53;;;;;;;;;1.00;0.00;;;;;20.39;63.27;100972.59;6087458;23;45302;-78
2021/07/27 10:25:20;;;;;;;;;0.00;0.00;;;;;20.34;63.43;100985.09;6087040;23;45407;-77
2021/07/27 10:27:50;;;;;;;;;0.00;0.00;;;;;20.18;63.49;100967.00;6086105;23;46288;-77
2021/07/27 10:30:16;;;;;;;;;1.00;0.00;;;;;20.35;63.23;100978.88;6085584;23;45348;-78
2021/07/27 10:32:55;;;;;;;;;0.25;0.00;;;;;20.20;62.88;100966.97;6086906;23;45378;-80
2021/07/27 10:35:29;;;;;;;;;0.25;0.00;;;;;20.15;63.36;100974.16;6086477;23;45364;-83
2021/07/27 10:38:06;;;;;;;;;0.00;0.00;;;;;19.84;63.67;100930.91;6086961;23;45426;-77
2021/07/27 10:40:31;;;;;;;;;0.00;0.00;;;;;20.11;64.05;100973.38;6085807;23;45392;-80
2021/07/27 10:42:56;;;;;;;;;0.00;0.00;;;;;20.20;63.66;100972.25;6087079;23;45288;-77
2021/07/27 10:45:22;;;;;;;;;0.50;0.00;;;;;20.13;63.20;100982.97;6087105;23;45349;-77
2021/07/27 10:47:49;;;;;;;;;0.00;0.00;;;;;20.08;63.58;100963.75;6085498;23;46458;-79
2021/07/27 10:50:15;;;;;;;;;1.25;0.00;;;;;19.86;63.82;100935.28;6087062;23;45320;-77
2021/07/27 10:52:43;;;;;;;;;0.00;0.00;;;;;20.19;64.01;100963.47;6087623;23;45427;-78
2021/07/27 10:55:10;;;;;;;;;0.00;0.00;;;;;20.29;63.68;100963.19;6087293;23;45340;-79
2021/07/27 10:57:42;;;;;;;;;1.00;1.00;;;;;20.37;63.56;100964.69;6086347;23;45432;-80
2021/07/27 11:00:08;;;;;;;;;0.25;0.25;;;;;20.33;63.62;100954.25;6086405;23;45518;-79
2021/07/27 11:02:34;;;;;;;;;0.75;0.75;;;;;20.45;63.83;100958.31;6087345;23;45318;-79
2021/07/27 11:04:59;;;;;;;;;0.00;0.00;;;;;20.49;63.45;100952.06;6088071;23;45213;-77
2021/07/27 11:07:28;;;;;;;;;0.25;0.25;;;;;20.50;63.70;100948.50;6087576;23;45955;-78
2021/07/27 11:09:55;;;;;;;;;0.00;0.00;;;;;20.63;63.88;100952.50;6086162;23;45342;-78
2021/07/27 11:12:38;;;;;;;;;0.00;0.00;;;;;20.75;63.77;100939.81;6086821;23;45401;-79
2021/07/27 11:15:18;;;;;;;;;1.00;1.00;;;;;20.84;63.48;100952.75;6085604;23;45660;-80
2021/07/27 11:17:51;;;;;;;;;0.00;0.00;;;;;20.83;63.24;100945.72;6086438;23;46133;-80
2021/07/27 11:20:38;;;;;;;;;0.25;0.00;;;;;20.89;63.50;100952.63;6086253;23;45288;-80
2021/07/27 11:23:12;;;;;;;;;0.00;0.00;;;;;20.82;63.36;100920.19;6086902;23;45376;-79
2021/07/27 11:25:38;;;;;;;;;0.50;0.00;;;;;20.84;63.27;100918.38;6087326;23;45297;-82
2021/07/27 11:28:14;;;;;;;;;0.00;0.00;;;;;21.08;63.16;100938.81;6085166;23;47743;-80
2021/07/27 11:30:41;;;;;;;;;0.00;0.00;;;;;21.04;61.94;100935.41;6083612;23;45290;-82
2021/07/27 11:33:08;;;;;;;;;1.50;0.00;;;;;20.91;62.53;100931.44;6087572;23;45293;-78
2021/07/27 11:35:45;;;;;;;;;0.50;0.00;;;;;20.94;62.93;100948.06;6087358;23;45300;-79
2021/07/27 11:38:18;;;;;;;;;0.00;0.00;;;;;20.67;63.44;100897.72;6087782;23;45907;-79
2021/07/27 11:40:44;;;;;;;;;0.25;0.25;;;;;20.85;62.53;100928.03;6088875;23;45309;-79
2021/07/27 11:43:10;;;;;;;;;0.00;0.00;;;;;21.09;63.03;100946.72;6088977;23;45514;-79
2021/07/27 11:45:37;;;;;;;;;0.00;0.00;;;;;21.17;62.50;100943.81;6089388;23;45435;-78
2021/07/27 11:48:04;;;;;;;;;0.00;0.00;;;;;21.05;62.50;100931.84;6089170;23;46649;-78
2021/07/27 11:50:38;;;;;;;;;3.25;0.00;;;;;21.18;62.82;100956.13;6088646;23;45257;-79